sensor_id;sensor_type;location;lat;lon;timestamp;P1;durP1;ratioP1;P2;durP2;ratioP2
70818;SDS011;58439;51.046;13.692;2022-09-09T00:10:00;1.63;;;0.90;;
70818;SDS011;58439;51.046;13.692;2022-09-09T00:12:41;1.38;;;0.90;;
70818;SDS011;58439;51.046;13.692;2022-09-09T00:18:49;3.33;;;1.25;;
70818;SDS011;58439;51.046;13.692;2022-09-09T00:21:36;4.75;;;1.20;;
70818;SDS011;58439;51.046;13.692;2022-09-09T00:24:11;3.28;;;1.30;;
70818;SDS011;58439;51.046;13.692;2022-09-09T00:32:54;3.05;;;1.30;;
70818;SDS011;58439;51.046;13.692;2022-09-09T00:35:29;5.18;;;1.30;;
70818;SDS011;58439;51.046;13.692;2022-09-09T00:38:02;5.18;;;1.20;;
70818;SDS011;58439;51.046;13.692;2022-09-09T00:40:55;2.88;;;1.40;;
70818;SDS011;58439;51.046;13.692;2022-09-09T00:43:36;3.38;;;1.70;;
70818;SDS011;58439;51.046;13.692;2022-09-09T00:46:10;2.75;;;1.23;;
70818;SDS011;58439;51.046;13.692;2022-09-09T00:51:56;5.57;;;1.27;;
70818;SDS011;58439;51.046;13.692;2022-09-09T00:55:06;3.38;;;1.25;;
70818;SDS011;58439;51.046;13.692;2022-09-09T00:58:00;3.63;;;1.35;;
70818;SDS011;58439;51.046;13.692;2022-09-09T01:00:29;2.85;;;1.30;;
70818;SDS011;58439;51.046;13.692;2022-09-09T01:03:13;4.93;;;1.27;;
70818;SDS011;58439;51.046;13.692;2022-09-09T01:09:05;5.18;;;2.03;;
70818;SDS011;58439;51.046;13.692;2022-09-09T01:14:56;3.25;;;1.52;;
70818;SDS011;58439;51.046;13.692;2022-09-09T01:20:38;3.28;;;1.40;;
70818;SDS011;58439;51.046;13.692;2022-09-09T01:23:52;3.42;;;1.45;;
70818;SDS011;58439;51.046;13.692;2022-09-09T01:27:03;7.80;;;1.45;;
70818;SDS011;58439;51.046;13.692;2022-09-09T01:29:34;3.42;;;1.13;;
70818;SDS011;58439;51.046;13.692;2022-09-09T01:35:22;4.63;;;1.00;;
70818;SDS011;58439;51.046;13.692;2022-09-09T01:38:33;7.75;;;1.48;;
70818;SDS011;58439;51.046;13.692;2022-09-09T01:41:05;3.00;;;1.03;;
70818;SDS011;58439;51.046;13.692;2022-09-09T01:43:45;2.53;;;1.02;;
70818;SDS011;58439;51.046;13.692;2022-09-09T01:46:15;3.03;;;1.02;;
70818;SDS011;58439;51.046;13.692;2022-09-09T01:48:45;2.42;;;1.05;;
70818;SDS011;58439;51.046;13.692;2022-09-09T01:51:14;3.22;;;0.90;;
70818;SDS011;58439;51.046;13.692;2022-09-09T01:53:46;3.70;;;1.20;;
70818;SDS011;58439;51.046;13.692;2022-09-09T01:56:18;2.20;;;1.00;;
70818;SDS011;58439;51.046;13.692;2022-09-09T02:05:58;2.83;;;1.50;;
70818;SDS011;58439;51.046;13.692;2022-09-09T02:08:57;8.00;;;1.75;;
70818;SDS011;58439;51.046;13.692;2022-09-09T02:11:30;3.75;;;1.35;;
70818;SDS011;58439;51.046;13.692;2022-09-09T02:14:08;2.85;;;1.85;;
70818;SDS011;58439;51.046;13.692;2022-09-09T02:16:44;2.92;;;1.55;;
70818;SDS011;58439;51.046;13.692;2022-09-09T02:19:34;5.60;;;1.63;;
70818;SDS011;58439;51.046;13.692;2022-09-09T02:22:19;3.28;;;1.70;;
70818;SDS011;58439;51.046;13.692;2022-09-09T02:27:25;5.10;;;1.80;;
70818;SDS011;58439;51.046;13.692;2022-09-09T02:29:55;5.55;;;2.00;;
70818;SDS011;58439;51.046;13.692;2022-09-09T02:32:39;4.22;;;1.70;;
70818;SDS011;58439;51.046;13.692;2022-09-09T02:35:13;3.10;;;1.58;;
70818;SDS011;58439;51.046;13.692;2022-09-09T02:37:47;4.55;;;1.90;;
70818;SDS011;58439;51.046;13.692;2022-09-09T02:40:22;4.70;;;2.05;;
70818;SDS011;58439;51.046;13.692;2022-09-09T02:42:57;4.97;;;1.67;;
70818;SDS011;58439;51.046;13.692;2022-09-09T02:45:32;5.13;;;1.80;;
70818;SDS011;58439;51.046;13.692;2022-09-09T02:48:30;3.92;;;1.63;;
70818;SDS011;58439;51.046;13.692;2022-09-09T02:51:24;3.55;;;1.70;;
70818;SDS011;58439;51.046;13.692;2022-09-09T02:54:14;2.42;;;1.58;;
70818;SDS011;58439;51.046;13.692;2022-09-09T02:56:46;5.22;;;1.70;;
70818;SDS011;58439;51.046;13.692;2022-09-09T02:59:26;10.27;;;2.13;;
70818;SDS011;58439;51.046;13.692;2022-09-09T03:01:54;5.05;;;2.03;;
70818;SDS011;58439;51.046;13.692;2022-09-09T03:04:22;5.32;;;1.80;;
70818;SDS011;58439;51.046;13.692;2022-09-09T03:06:52;3.00;;;1.55;;
70818;SDS011;58439;51.046;13.692;2022-09-09T03:13:36;2.53;;;1.77;;
70818;SDS011;58439;51.046;13.692;2022-09-09T03:16:05;2.53;;;1.88;;
70818;SDS011;58439;51.046;13.692;2022-09-09T03:18:39;9.23;;;2.33;;
70818;SDS011;58439;51.046;13.692;2022-09-09T03:25:07;7.35;;;2.63;;
70818;SDS011;58439;51.046;13.692;2022-09-09T03:27:37;4.70;;;1.75;;
70818;SDS011;58439;51.046;13.692;2022-09-09T03:30:06;3.05;;;1.73;;
70818;SDS011;58439;51.046;13.692;2022-09-09T03:35:35;5.28;;;1.30;;
70818;SDS011;58439;51.046;13.692;2022-09-09T03:41:09;5.05;;;1.70;;
70818;SDS011;58439;51.046;13.692;2022-09-09T03:43:38;6.10;;;2.28;;
70818;SDS011;58439;51.046;13.692;2022-09-09T03:46:06;3.95;;;1.83;;
70818;SDS011;58439;51.046;13.692;2022-09-09T03:48:36;3.20;;;1.42;;
70818;SDS011;58439;51.046;13.692;2022-09-09T03:54:11;3.78;;;2.03;;
70818;SDS011;58439;51.046;13.692;2022-09-09T03:56:38;6.55;;;1.98;;
70818;SDS011;58439;51.046;13.692;2022-09-09T03:59:10;3.45;;;1.90;;
70818;SDS011;58439;51.046;13.692;2022-09-09T04:01:37;7.80;;;1.90;;
70818;SDS011;58439;51.046;13.692;2022-09-09T04:04:06;8.93;;;1.80;;
70818;SDS011;58439;51.046;13.692;2022-09-09T04:06:34;5.05;;;1.88;;
70818;SDS011;58439;51.046;13.692;2022-09-09T04:09:03;5.28;;;1.55;;
70818;SDS011;58439;51.046;13.692;2022-09-09T04:11:31;2.88;;;1.63;;
70818;SDS011;58439;51.046;13.692;2022-09-09T04:13:58;4.32;;;1.77;;
70818;SDS011;58439;51.046;13.692;2022-09-09T04:16:29;2.75;;;1.52;;
70818;SDS011;58439;51.046;13.692;2022-09-09T04:18:56;5.35;;;1.77;;
70818;SDS011;58439;51.046;13.692;2022-09-09T04:21:24;2.90;;;1.50;;
70818;SDS011;58439;51.046;13.692;2022-09-09T04:23:52;4.22;;;1.83;;
70818;SDS011;58439;51.046;13.692;2022-09-09T04:26:25;4.18;;;1.80;;
70818;SDS011;58439;51.046;13.692;2022-09-09T04:28:53;6.35;;;1.75;;
70818;SDS011;58439;51.046;13.692;2022-09-09T04:31:22;5.07;;;2.00;;
70818;SDS011;58439;51.046;13.692;2022-09-09T04:33:56;3.58;;;1.70;;
70818;SDS011;58439;51.046;13.692;2022-09-09T04:36:25;3.90;;;1.85;;
70818;SDS011;58439;51.046;13.692;2022-09-09T04:38:57;4.38;;;2.25;;
70818;SDS011;58439;51.046;13.692;2022-09-09T04:41:25;4.63;;;2.13;;
70818;SDS011;58439;51.046;13.692;2022-09-09T04:43:54;5.15;;;1.90;;
70818;SDS011;58439;51.046;13.692;2022-09-09T04:46:21;3.95;;;2.15;;
70818;SDS011;58439;51.046;13.692;2022-09-09T04:48:50;7.03;;;2.72;;
70818;SDS011;58439;51.046;13.692;2022-09-09T04:51:22;3.78;;;2.00;;
70818;SDS011;58439;51.046;13.692;2022-09-09T04:53:51;17.08;;;4.25;;
70818;SDS011;58439;51.046;13.692;2022-09-09T04:56:20;5.30;;;2.30;;
70818;SDS011;58439;51.046;13.692;2022-09-09T04:58:54;5.93;;;1.98;;
70818;SDS011;58439;51.046;13.692;2022-09-09T05:01:29;4.25;;;2.42;;
70818;SDS011;58439;51.046;13.692;2022-09-09T05:04:02;3.58;;;1.88;;
70818;SDS011;58439;51.046;13.692;2022-09-09T05:06:33;6.05;;;2.47;;
70818;SDS011;58439;51.046;13.692;2022-09-09T05:09:04;3.75;;;2.05;;
70818;SDS011;58439;51.046;13.692;2022-09-09T05:11:32;7.25;;;2.30;;
70818;SDS011;58439;51.046;13.692;2022-09-09T05:14:10;6.43;;;2.20;;
70818;SDS011;58439;51.046;13.692;2022-09-09T05:16:41;4.28;;;2.05;;
70818;SDS011;58439;51.046;13.692;2022-09-09T05:19:11;6.97;;;2.25;;
70818;SDS011;58439;51.046;13.692;2022-09-09T05:21:46;6.00;;;2.50;;
70818;SDS011;58439;51.046;13.692;2022-09-09T05:24:18;6.07;;;2.30;;
70818;SDS011;58439;51.046;13.692;2022-09-09T05:26:48;7.60;;;2.63;;
70818;SDS011;58439;51.046;13.692;2022-09-09T05:29:16;10.80;;;2.75;;
70818;SDS011;58439;51.046;13.692;2022-09-09T05:31:46;7.40;;;2.13;;
70818;SDS011;58439;51.046;13.692;2022-09-09T05:34:16;8.45;;;2.22;;
70818;SDS011;58439;51.046;13.692;2022-09-09T05:36:43;6.60;;;2.10;;
70818;SDS011;58439;51.046;13.692;2022-09-09T05:39:18;4.57;;;1.83;;
70818;SDS011;58439;51.046;13.692;2022-09-09T05:41:45;6.63;;;1.88;;
70818;SDS011;58439;51.046;13.692;2022-09-09T05:44:12;9.77;;;2.38;;
70818;SDS011;58439;51.046;13.692;2022-09-09T05:46:40;7.72;;;2.20;;
70818;SDS011;58439;51.046;13.692;2022-09-09T05:49:07;4.55;;;2.20;;
70818;SDS011;58439;51.046;13.692;2022-09-09T05:51:35;6.38;;;1.73;;
70818;SDS011;58439;51.046;13.692;2022-09-09T05:54:07;7.47;;;2.22;;
70818;SDS011;58439;51.046;13.692;2022-09-09T05:56:38;5.80;;;1.88;;
70818;SDS011;58439;51.046;13.692;2022-09-09T05:59:08;6.50;;;1.92;;
70818;SDS011;58439;51.046;13.692;2022-09-09T06:01:38;7.38;;;1.90;;
70818;SDS011;58439;51.046;13.692;2022-09-09T06:04:17;4.32;;;1.95;;
70818;SDS011;58439;51.046;13.692;2022-09-09T06:06:44;5.20;;;1.80;;
70818;SDS011;58439;51.046;13.692;2022-09-09T06:09:18;5.38;;;1.75;;
70818;SDS011;58439;51.046;13.692;2022-09-09T06:11:45;3.60;;;1.65;;
70818;SDS011;58439;51.046;13.692;2022-09-09T06:14:15;8.73;;;1.95;;
70818;SDS011;58439;51.046;13.692;2022-09-09T06:16:51;4.57;;;1.70;;
70818;SDS011;58439;51.046;13.692;2022-09-09T06:19:31;7.15;;;2.10;;
70818;SDS011;58439;51.046;13.692;2022-09-09T06:22:42;5.38;;;1.80;;
70818;SDS011;58439;51.046;13.692;2022-09-09T06:25:18;6.50;;;1.83;;
70818;SDS011;58439;51.046;13.692;2022-09-09T06:28:12;3.45;;;1.63;;
70818;SDS011;58439;51.046;13.692;2022-09-09T06:34:11;5.90;;;2.03;;
70818;SDS011;58439;51.046;13.692;2022-09-09T06:36:42;4.87;;;1.77;;
70818;SDS011;58439;51.046;13.692;2022-09-09T06:39:12;5.57;;;1.88;;
70818;SDS011;58439;51.046;13.692;2022-09-09T06:41:44;5.90;;;1.92;;
70818;SDS011;58439;51.046;13.692;2022-09-09T06:44:29;5.70;;;2.35;;
70818;SDS011;58439;51.046;13.692;2022-09-09T06:47:03;6.57;;;2.15;;
70818;SDS011;58439;51.046;13.692;2022-09-09T06:52:29;3.83;;;1.75;;
70818;SDS011;58439;51.046;13.692;2022-09-09T06:55:05;6.43;;;2.25;;
70818;SDS011;58439;51.046;13.692;2022-09-09T06:57:58;5.38;;;2.15;;
70818;SDS011;58439;51.046;13.692;2022-09-09T07:03:23;4.20;;;2.38;;
70818;SDS011;58439;51.046;13.692;2022-09-09T07:06:04;10.85;;;2.35;;
70818;SDS011;58439;51.046;13.692;2022-09-09T07:08:54;3.80;;;1.85;;
70818;SDS011;58439;51.046;13.692;2022-09-09T07:11:55;8.15;;;3.10;;
70818;SDS011;58439;51.046;13.692;2022-09-09T07:14:27;8.43;;;1.70;;
70818;SDS011;58439;51.046;13.692;2022-09-09T07:16:58;7.05;;;1.95;;
70818;SDS011;58439;51.046;13.692;2022-09-09T07:19:30;20.83;;;5.47;;
70818;SDS011;58439;51.046;13.692;2022-09-09T07:21:58;8.10;;;1.92;;
70818;SDS011;58439;51.046;13.692;2022-09-09T07:24:26;4.97;;;1.70;;
70818;SDS011;58439;51.046;13.692;2022-09-09T07:27:00;5.65;;;1.67;;
70818;SDS011;58439;51.046;13.692;2022-09-09T07:29:29;8.02;;;2.20;;
70818;SDS011;58439;51.046;13.692;2022-09-09T07:31:56;3.70;;;1.70;;
70818;SDS011;58439;51.046;13.692;2022-09-09T07:36:57;7.03;;;1.65;;
70818;SDS011;58439;51.046;13.692;2022-09-09T07:39:25;5.38;;;1.77;;
70818;SDS011;58439;51.046;13.692;2022-09-09T07:41:53;11.48;;;1.90;;
70818;SDS011;58439;51.046;13.692;2022-09-09T07:44:23;3.30;;;1.70;;
70818;SDS011;58439;51.046;13.692;2022-09-09T07:47:01;5.70;;;1.90;;
70818;SDS011;58439;51.046;13.692;2022-09-09T07:49:38;10.50;;;2.78;;
70818;SDS011;58439;51.046;13.692;2022-09-09T07:52:07;10.00;;;1.60;;
70818;SDS011;58439;51.046;13.692;2022-09-09T07:54:48;6.22;;;1.98;;
70818;SDS011;58439;51.046;13.692;2022-09-09T07:57:19;4.22;;;1.70;;
70818;SDS011;58439;51.046;13.692;2022-09-09T07:59:51;5.05;;;1.88;;
70818;SDS011;58439;51.046;13.692;2022-09-09T08:02:19;5.22;;;1.98;;
70818;SDS011;58439;51.046;13.692;2022-09-09T08:04:49;4.85;;;1.50;;
70818;SDS011;58439;51.046;13.692;2022-09-09T08:07:20;7.70;;;1.67;;
70818;SDS011;58439;51.046;13.692;2022-09-09T08:09:52;8.55;;;2.47;;
70818;SDS011;58439;51.046;13.692;2022-09-09T08:12:26;5.38;;;2.10;;
70818;SDS011;58439;51.046;13.692;2022-09-09T08:14:55;4.35;;;1.50;;
70818;SDS011;58439;51.046;13.692;2022-09-09T08:17:26;6.75;;;2.00;;
70818;SDS011;58439;51.046;13.692;2022-09-09T08:19:56;4.82;;;1.65;;
70818;SDS011;58439;51.046;13.692;2022-09-09T08:22:32;3.40;;;1.58;;
70818;SDS011;58439;51.046;13.692;2022-09-09T08:25:00;3.00;;;1.60;;
70818;SDS011;58439;51.046;13.692;2022-09-09T08:27:40;6.75;;;1.85;;
70818;SDS011;58439;51.046;13.692;2022-09-09T08:30:11;11.35;;;2.05;;
70818;SDS011;58439;51.046;13.692;2022-09-09T08:32:48;2.58;;;1.00;;
70818;SDS011;58439;51.046;13.692;2022-09-09T08:35:20;9.43;;;1.60;;
70818;SDS011;58439;51.046;13.692;2022-09-09T08:37:53;5.20;;;1.08;;
70818;SDS011;58439;51.046;13.692;2022-09-09T08:40:26;5.22;;;1.00;;
70818;SDS011;58439;51.046;13.692;2022-09-09T08:43:00;2.45;;;1.15;;
70818;SDS011;58439;51.046;13.692;2022-09-09T08:45:33;1.10;;;0.57;;
70818;SDS011;58439;51.046;13.692;2022-09-09T08:51:10;4.72;;;0.73;;
70818;SDS011;58439;51.046;13.692;2022-09-09T08:53:45;3.72;;;0.80;;
70818;SDS011;58439;51.046;13.692;2022-09-09T08:56:18;3.67;;;0.80;;
70818;SDS011;58439;51.046;13.692;2022-09-09T08:58:56;3.05;;;0.98;;
70818;SDS011;58439;51.046;13.692;2022-09-09T09:01:50;7.00;;;0.88;;
70818;SDS011;58439;51.046;13.692;2022-09-09T09:07:31;3.50;;;0.90;;
70818;SDS011;58439;51.046;13.692;2022-09-09T09:17:14;3.75;;;0.77;;
70818;SDS011;58439;51.046;13.692;2022-09-09T09:20:24;3.03;;;0.80;;
70818;SDS011;58439;51.046;13.692;2022-09-09T09:23:25;3.05;;;0.90;;
70818;SDS011;58439;51.046;13.692;2022-09-09T09:40:47;5.15;;;1.15;;
70818;SDS011;58439;51.046;13.692;2022-09-09T09:53:34;2.47;;;0.77;;
70818;SDS011;58439;51.046;13.692;2022-09-09T09:57:37;3.15;;;0.90;;
70818;SDS011;58439;51.046;13.692;2022-09-09T10:00:52;3.20;;;0.60;;
70818;SDS011;58439;51.046;13.692;2022-09-09T10:04:41;3.92;;;0.95;;
70818;SDS011;58439;51.046;13.692;2022-09-09T10:07:13;2.88;;;0.70;;
70818;SDS011;58439;51.046;13.692;2022-09-09T10:09:48;2.55;;;0.80;;
70818;SDS011;58439;51.046;13.692;2022-09-09T10:18:29;2.13;;;0.90;;
70818;SDS011;58439;51.046;13.692;2022-09-09T10:21:17;5.60;;;1.10;;
70818;SDS011;58439;51.046;13.692;2022-09-09T10:26:52;3.67;;;0.80;;
70818;SDS011;58439;51.046;13.692;2022-09-09T10:30:03;3.17;;;0.65;;
70818;SDS011;58439;51.046;13.692;2022-09-09T10:35:33;4.13;;;0.93;;
70818;SDS011;58439;51.046;13.692;2022-09-09T10:38:22;3.42;;;0.80;;
70818;SDS011;58439;51.046;13.692;2022-09-09T10:41:33;4.75;;;1.20;;
70818;SDS011;58439;51.046;13.692;2022-09-09T10:44:42;4.65;;;0.98;;
70818;SDS011;58439;51.046;13.692;2022-09-09T10:47:38;3.80;;;1.23;;
70818;SDS011;58439;51.046;13.692;2022-09-09T10:50:40;1.80;;;0.80;;
70818;SDS011;58439;51.046;13.692;2022-09-09T10:53:35;4.40;;;0.85;;
70818;SDS011;58439;51.046;13.692;2022-09-09T10:56:24;3.05;;;1.13;;
70818;SDS011;58439;51.046;13.692;2022-09-09T10:59:11;9.07;;;1.02;;
70818;SDS011;58439;51.046;13.692;2022-09-09T11:01:55;3.20;;;0.77;;
70818;SDS011;58439;51.046;13.692;2022-09-09T11:04:34;3.97;;;1.02;;
70818;SDS011;58439;51.046;13.692;2022-09-09T11:07:30;2.83;;;1.00;;
70818;SDS011;58439;51.046;13.692;2022-09-09T11:10:21;5.22;;;1.17;;
70818;SDS011;58439;51.046;13.692;2022-09-09T11:15:46;4.55;;;1.00;;
70818;SDS011;58439;51.046;13.692;2022-09-09T11:18:22;3.53;;;0.90;;
70818;SDS011;58439;51.046;13.692;2022-09-09T11:20:51;3.30;;;1.25;;
70818;SDS011;58439;51.046;13.692;2022-09-09T11:23:29;2.35;;;0.70;;
70818;SDS011;58439;51.046;13.692;2022-09-09T11:26:31;6.82;;;0.90;;
70818;SDS011;58439;51.046;13.692;2022-09-09T11:29:19;8.65;;;1.20;;
70818;SDS011;58439;51.046;13.692;2022-09-09T11:32:20;5.07;;;0.90;;
70818;SDS011;58439;51.046;13.692;2022-09-09T11:35:38;8.60;;;1.27;;
70818;SDS011;58439;51.046;13.692;2022-09-09T11:40:54;7.68;;;1.83;;
70818;SDS011;58439;51.046;13.692;2022-09-09T11:43:39;5.13;;;1.10;;
70818;SDS011;58439;51.046;13.692;2022-09-09T11:46:09;6.30;;;1.30;;
70818;SDS011;58439;51.046;13.692;2022-09-09T11:48:44;3.75;;;1.02;;
70818;SDS011;58439;51.046;13.692;2022-09-09T11:51:26;2.55;;;1.00;;
70818;SDS011;58439;51.046;13.692;2022-09-09T11:54:00;5.05;;;1.35;;
70818;SDS011;58439;51.046;13.692;2022-09-09T11:56:49;7.13;;;1.30;;
70818;SDS011;58439;51.046;13.692;2022-09-09T12:01:57;3.65;;;0.90;;
70818;SDS011;58439;51.046;13.692;2022-09-09T12:04:48;3.42;;;1.10;;
70818;SDS011;58439;51.046;13.692;2022-09-09T12:07:31;2.00;;;1.05;;
70818;SDS011;58439;51.046;13.692;2022-09-09T12:13:07;3.10;;;0.90;;
70818;SDS011;58439;51.046;13.692;2022-09-09T12:15:51;4.20;;;0.93;;
70818;SDS011;58439;51.046;13.692;2022-09-09T12:18:37;4.32;;;1.17;;
70818;SDS011;58439;51.046;13.692;2022-09-09T12:21:33;4.75;;;0.90;;
70818;SDS011;58439;51.046;13.692;2022-09-09T12:24:33;3.28;;;1.20;;
70818;SDS011;58439;51.046;13.692;2022-09-09T12:32:29;2.28;;;1.10;;
70818;SDS011;58439;51.046;13.692;2022-09-09T12:37:35;3.95;;;1.10;;
70818;SDS011;58439;51.046;13.692;2022-09-09T12:40:32;3.90;;;1.00;;
70818;SDS011;58439;51.046;13.692;2022-09-09T12:43:20;3.33;;;1.20;;
70818;SDS011;58439;51.046;13.692;2022-09-09T12:46:00;6.63;;;1.25;;
70818;SDS011;58439;51.046;13.692;2022-09-09T12:48:38;2.42;;;1.00;;
70818;SDS011;58439;51.046;13.692;2022-09-09T12:51:18;6.97;;;2.28;;
70818;SDS011;58439;51.046;13.692;2022-09-09T12:53:58;2.92;;;1.20;;
70818;SDS011;58439;51.046;13.692;2022-09-09T12:56:30;7.43;;;1.58;;
70818;SDS011;58439;51.046;13.692;2022-09-09T12:58:59;4.07;;;0.80;;
70818;SDS011;58439;51.046;13.692;2022-09-09T13:01:29;3.05;;;1.10;;
70818;SDS011;58439;51.046;13.692;2022-09-09T13:04:00;6.53;;;1.25;;
70818;SDS011;58439;51.046;13.692;2022-09-09T13:07:04;2.22;;;0.95;;
70818;SDS011;58439;51.046;13.692;2022-09-09T13:09:34;4.20;;;1.17;;
70818;SDS011;58439;51.046;13.692;2022-09-09T13:12:02;3.38;;;1.10;;
70818;SDS011;58439;51.046;13.692;2022-09-09T13:14:34;3.00;;;0.90;;
70818;SDS011;58439;51.046;13.692;2022-09-09T13:17:04;5.13;;;0.77;;
70818;SDS011;58439;51.046;13.692;2022-09-09T13:19:36;4.47;;;0.80;;
70818;SDS011;58439;51.046;13.692;2022-09-09T13:22:20;3.15;;;0.90;;
70818;SDS011;58439;51.046;13.692;2022-09-09T13:25:32;4.50;;;1.40;;
70818;SDS011;58439;51.046;13.692;2022-09-09T13:27:56;5.22;;;1.20;;
70818;SDS011;58439;51.046;13.692;2022-09-09T13:33:56;3.45;;;1.20;;
70818;SDS011;58439;51.046;13.692;2022-09-09T13:36:31;2.63;;;1.20;;
70818;SDS011;58439;51.046;13.692;2022-09-09T13:39:02;6.20;;;0.80;;
70818;SDS011;58439;51.046;13.692;2022-09-09T13:41:34;4.10;;;1.42;;
70818;SDS011;58439;51.046;13.692;2022-09-09T13:44:19;2.60;;;0.73;;
70818;SDS011;58439;51.046;13.692;2022-09-09T13:47:02;5.55;;;1.00;;
70818;SDS011;58439;51.046;13.692;2022-09-09T13:49:42;3.72;;;1.25;;
70818;SDS011;58439;51.046;13.692;2022-09-09T13:52:16;2.42;;;0.90;;
70818;SDS011;58439;51.046;13.692;2022-09-09T13:55:04;5.47;;;1.23;;
70818;SDS011;58439;51.046;13.692;2022-09-09T13:57:34;3.30;;;1.27;;
70818;SDS011;58439;51.046;13.692;2022-09-09T14:00:04;3.08;;;1.00;;
70818;SDS011;58439;51.046;13.692;2022-09-09T14:02:37;7.00;;;2.10;;
70818;SDS011;58439;51.046;13.692;2022-09-09T14:05:05;3.72;;;1.02;;
70818;SDS011;58439;51.046;13.692;2022-09-09T14:07:33;3.50;;;0.90;;
70818;SDS011;58439;51.046;13.692;2022-09-09T14:10:00;2.85;;;1.15;;
70818;SDS011;58439;51.046;13.692;2022-09-09T14:12:27;3.42;;;1.20;;
70818;SDS011;58439;51.046;13.692;2022-09-09T14:14:54;5.35;;;1.02;;
70818;SDS011;58439;51.046;13.692;2022-09-09T14:17:21;2.72;;;0.90;;
70818;SDS011;58439;51.046;13.692;2022-09-09T14:19:49;3.65;;;0.90;;
70818;SDS011;58439;51.046;13.692;2022-09-09T14:22:15;4.28;;;1.10;;
70818;SDS011;58439;51.046;13.692;2022-09-09T14:24:43;5.13;;;0.95;;
70818;SDS011;58439;51.046;13.692;2022-09-09T14:27:10;2.47;;;0.90;;
70818;SDS011;58439;51.046;13.692;2022-09-09T14:29:37;5.28;;;1.40;;
70818;SDS011;58439;51.046;13.692;2022-09-09T14:32:04;1.27;;;0.63;;
70818;SDS011;58439;51.046;13.692;2022-09-09T14:34:37;4.03;;;1.30;;
70818;SDS011;58439;51.046;13.692;2022-09-09T14:37:06;4.75;;;1.30;;
70818;SDS011;58439;51.046;13.692;2022-09-09T14:39:33;1.92;;;1.00;;
70818;SDS011;58439;51.046;13.692;2022-09-09T14:42:00;4.15;;;1.13;;
70818;SDS011;58439;51.046;13.692;2022-09-09T14:44:28;4.18;;;1.23;;
70818;SDS011;58439;51.046;13.692;2022-09-09T14:46:55;2.67;;;1.10;;
70818;SDS011;58439;51.046;13.692;2022-09-09T14:49:23;4.20;;;0.90;;
70818;SDS011;58439;51.046;13.692;2022-09-09T14:51:50;2.00;;;0.80;;
70818;SDS011;58439;51.046;13.692;2022-09-09T14:54:17;3.25;;;0.65;;
70818;SDS011;58439;51.046;13.692;2022-09-09T14:56:44;5.03;;;0.75;;
70818;SDS011;58439;51.046;13.692;2022-09-09T14:59:11;4.47;;;1.20;;
70818;SDS011;58439;51.046;13.692;2022-09-09T15:01:39;3.35;;;0.90;;
70818;SDS011;58439;51.046;13.692;2022-09-09T15:04:07;3.75;;;0.80;;
70818;SDS011;58439;51.046;13.692;2022-09-09T15:06:38;2.63;;;0.80;;
70818;SDS011;58439;51.046;13.692;2022-09-09T15:09:12;1.63;;;0.65;;
70818;SDS011;58439;51.046;13.692;2022-09-09T15:11:39;2.17;;;0.70;;
70818;SDS011;58439;51.046;13.692;2022-09-09T15:14:07;4.50;;;0.70;;
70818;SDS011;58439;51.046;13.692;2022-09-09T15:16:36;4.90;;;1.08;;
70818;SDS011;58439;51.046;13.692;2022-09-09T15:19:04;1.55;;;0.63;;
70818;SDS011;58439;51.046;13.692;2022-09-09T15:21:36;3.35;;;0.90;;
70818;SDS011;58439;51.046;13.692;2022-09-09T15:24:06;4.57;;;1.00;;
70818;SDS011;58439;51.046;13.692;2022-09-09T15:26:34;2.45;;;0.70;;
70818;SDS011;58439;51.046;13.692;2022-09-09T15:29:04;6.10;;;0.80;;
70818;SDS011;58439;51.046;13.692;2022-09-09T15:31:32;5.22;;;0.60;;
70818;SDS011;58439;51.046;13.692;2022-09-09T15:34:03;2.15;;;0.63;;
70818;SDS011;58439;51.046;13.692;2022-09-09T15:36:41;1.37;;;0.50;;
70818;SDS011;58439;51.046;13.692;2022-09-09T15:39:12;1.83;;;0.60;;
70818;SDS011;58439;51.046;13.692;2022-09-09T15:41:43;5.30;;;1.05;;
70818;SDS011;58439;51.046;13.692;2022-09-09T15:44:15;3.67;;;0.88;;
70818;SDS011;58439;51.046;13.692;2022-09-09T15:46:43;3.28;;;1.33;;
70818;SDS011;58439;51.046;13.692;2022-09-09T15:49:18;3.45;;;1.15;;
70818;SDS011;58439;51.046;13.692;2022-09-09T15:51:55;2.85;;;1.30;;
70818;SDS011;58439;51.046;13.692;2022-09-09T15:54:34;2.55;;;0.90;;
70818;SDS011;58439;51.046;13.692;2022-09-09T15:57:06;3.13;;;1.10;;
70818;SDS011;58439;51.046;13.692;2022-09-09T15:59:37;8.43;;;1.33;;
70818;SDS011;58439;51.046;13.692;2022-09-09T16:02:04;3.58;;;1.13;;
70818;SDS011;58439;51.046;13.692;2022-09-09T16:04:31;4.18;;;1.20;;
70818;SDS011;58439;51.046;13.692;2022-09-09T16:07:01;3.08;;;1.48;;
70818;SDS011;58439;51.046;13.692;2022-09-09T16:09:31;7.13;;;1.30;;
70818;SDS011;58439;51.046;13.692;2022-09-09T16:12:00;2.92;;;0.90;;
70818;SDS011;58439;51.046;13.692;2022-09-09T16:14:37;4.07;;;0.95;;
70818;SDS011;58439;51.046;13.692;2022-09-09T16:17:05;2.28;;;1.02;;
70818;SDS011;58439;51.046;13.692;2022-09-09T16:19:33;4.57;;;1.17;;
70818;SDS011;58439;51.046;13.692;2022-09-09T16:22:00;3.83;;;1.58;;
70818;SDS011;58439;51.046;13.692;2022-09-09T16:24:29;3.30;;;1.48;;
70818;SDS011;58439;51.046;13.692;2022-09-09T16:26:56;3.65;;;1.40;;
70818;SDS011;58439;51.046;13.692;2022-09-09T16:29:23;5.40;;;1.42;;
70818;SDS011;58439;51.046;13.692;2022-09-09T16:31:53;5.35;;;1.23;;
70818;SDS011;58439;51.046;13.692;2022-09-09T16:34:28;6.82;;;1.60;;
70818;SDS011;58439;51.046;13.692;2022-09-09T16:36:55;4.05;;;1.17;;
70818;SDS011;58439;51.046;13.692;2022-09-09T16:39:22;4.85;;;1.10;;
70818;SDS011;58439;51.046;13.692;2022-09-09T16:41:52;12.25;;;2.30;;
70818;SDS011;58439;51.046;13.692;2022-09-09T16:44:19;7.65;;;1.63;;
70818;SDS011;58439;51.046;13.692;2022-09-09T16:46:46;5.82;;;1.40;;
70818;SDS011;58439;51.046;13.692;2022-09-09T16:49:25;3.90;;;1.20;;
70818;SDS011;58439;51.046;13.692;2022-09-09T16:51:56;5.97;;;1.38;;
70818;SDS011;58439;51.046;13.692;2022-09-09T16:54:26;3.92;;;1.20;;
70818;SDS011;58439;51.046;13.692;2022-09-09T16:56:55;5.20;;;1.50;;
70818;SDS011;58439;51.046;13.692;2022-09-09T16:59:22;4.25;;;1.55;;
70818;SDS011;58439;51.046;13.692;2022-09-09T17:01:50;4.85;;;1.30;;
70818;SDS011;58439;51.046;13.692;2022-09-09T17:04:19;2.97;;;1.20;;
70818;SDS011;58439;51.046;13.692;2022-09-09T17:06:54;3.58;;;1.33;;
70818;SDS011;58439;51.046;13.692;2022-09-09T17:09:24;3.10;;;1.17;;
70818;SDS011;58439;51.046;13.692;2022-09-09T17:11:55;2.92;;;1.30;;
70818;SDS011;58439;51.046;13.692;2022-09-09T17:14:22;5.55;;;1.15;;
70818;SDS011;58439;51.046;13.692;2022-09-09T17:16:50;3.45;;;1.10;;
70818;SDS011;58439;51.046;13.692;2022-09-09T17:19:38;3.17;;;1.10;;
70818;SDS011;58439;51.046;13.692;2022-09-09T17:22:05;4.57;;;0.98;;
70818;SDS011;58439;51.046;13.692;2022-09-09T17:24:48;3.58;;;1.10;;
70818;SDS011;58439;51.046;13.692;2022-09-09T17:27:15;3.78;;;1.63;;
70818;SDS011;58439;51.046;13.692;2022-09-09T17:29:42;2.83;;;1.45;;
70818;SDS011;58439;51.046;13.692;2022-09-09T17:32:09;3.97;;;1.15;;
70818;SDS011;58439;51.046;13.692;2022-09-09T17:34:36;2.30;;;1.05;;
70818;SDS011;58439;51.046;13.692;2022-09-09T17:37:04;2.22;;;1.10;;
70818;SDS011;58439;51.046;13.692;2022-09-09T17:39:32;5.18;;;1.25;;
70818;SDS011;58439;51.046;13.692;2022-09-09T17:41:59;2.88;;;1.13;;
70818;SDS011;58439;51.046;13.692;2022-09-09T17:44:27;2.13;;;1.00;;
70818;SDS011;58439;51.046;13.692;2022-09-09T17:46:55;5.63;;;1.60;;
70818;SDS011;58439;51.046;13.692;2022-09-09T17:49:22;7.63;;;1.40;;